sensor_id;sensor_type;location;lat;lon;timestamp;pressure;altitude;pressure_sealevel;temperature;humidity
62592;BME280;48659;41.622;2.276;2022-07-29T00:01:23;99684.71;;;24.01;54.52
62592;BME280;48659;41.622;2.276;2022-07-29T00:03:51;99680.07;;;24.18;53.07
62592;BME280;48659;41.622;2.276;2022-07-29T00:06:18;99680.60;;;25.11;51.82
62592;BME280;48659;41.622;2.276;2022-07-29T00:08:46;99680.78;;;21.97;56.68
62592;BME280;48659;41.622;2.276;2022-07-29T00:11:14;99674.82;;;24.36;52.69
62592;BME280;48659;41.622;2.276;2022-07-29T00:13:42;99671.91;;;25.33;51.20
62592;BME280;48659;41.622;2.276;2022-07-29T00:16:09;99665.71;;;25.98;48.87
62592;BME280;48659;41.622;2.276;2022-07-29T00:18:36;99662.00;;;26.38;47.65
62592;BME280;48659;41.622;2.276;2022-07-29T00:21:03;99661.21;;;25.97;47.51
62592;BME280;48659;41.622;2.276;2022-07-29T00:23:31;99667.81;;;26.33;47.54
62592;BME280;48659;41.622;2.276;2022-07-29T00:25:58;99669.20;;;26.35;48.08
62592;BME280;48659;41.622;2.276;2022-07-29T00:28:40;99671.61;;;25.47;49.65
62592;BME280;48659;41.622;2.276;2022-07-29T00:31:07;99666.42;;;26.82;47.04
62592;BME280;48659;41.622;2.276;2022-07-29T00:33:35;99672.11;;;25.44;48.55
62592;BME280;48659;41.622;2.276;2022-07-29T00:36:03;99669.80;;;27.02;47.12
62592;BME280;48659;41.622;2.276;2022-07-29T00:38:31;99667.48;;;23.99;51.92
62592;BME280;48659;41.622;2.276;2022-07-29T00:40:58;99666.21;;;25.81;49.57
62592;BME280;48659;41.622;2.276;2022-07-29T00:43:38;99657.56;;;24.34;52.80
62592;BME280;48659;41.622;2.276;2022-07-29T00:46:05;99660.59;;;23.96;53.45
62592;BME280;48659;41.622;2.276;2022-07-29T00:48:33;99664.84;;;22.00;57.75
62592;BME280;48659;41.622;2.276;2022-07-29T00:51:03;99664.64;;;24.36;54.11
62592;BME280;48659;41.622;2.276;2022-07-29T00:53:32;99676.05;;;22.54;55.81
62592;BME280;48659;41.622;2.276;2022-07-29T00:56:00;99681.87;;;22.92;57.88
62592;BME280;48659;41.622;2.276;2022-07-29T00:58:28;99679.65;;;22.85;56.68
62592;BME280;48659;41.622;2.276;2022-07-29T01:00:55;99675.16;;;22.18;58.59
62592;BME280;48659;41.622;2.276;2022-07-29T01:03:23;99678.20;;;21.87;60.74
62592;BME280;48659;41.622;2.276;2022-07-29T01:05:50;99676.66;;;22.90;56.14
62592;BME280;48659;41.622;2.276;2022-07-29T01:08:18;99679.48;;;23.53;55.28
62592;BME280;48659;41.622;2.276;2022-07-29T01:10:47;99677.13;;;22.76;56.52
62592;BME280;48659;41.622;2.276;2022-07-29T01:13:15;99675.11;;;22.44;57.63
62592;BME280;48659;41.622;2.276;2022-07-29T01:15:45;99675.88;;;21.70;60.09
62592;BME280;48659;41.622;2.276;2022-07-29T01:18:18;99667.30;;;24.01;54.78
62592;BME280;48659;41.622;2.276;2022-07-29T01:21:04;99659.28;;;24.39;52.81
62592;BME280;48659;41.622;2.276;2022-07-29T01:23:53;99656.81;;;22.71;55.34
62592;BME280;48659;41.622;2.276;2022-07-29T01:26:41;99645.12;;;24.74;51.47
62592;BME280;48659;41.622;2.276;2022-07-29T01:29:15;99644.27;;;23.86;54.76
62592;BME280;48659;41.622;2.276;2022-07-29T01:31:47;99642.55;;;22.31;58.47
62592;BME280;48659;41.622;2.276;2022-07-29T01:34:20;99642.26;;;23.29;56.22
62592;BME280;48659;41.622;2.276;2022-07-29T01:36:51;99638.81;;;23.86;54.44
62592;BME280;48659;41.622;2.276;2022-07-29T01:39:27;99640.02;;;24.08;53.87
62592;BME280;48659;41.622;2.276;2022-07-29T01:42:01;99632.82;;;24.03;51.01
62592;BME280;48659;41.622;2.276;2022-07-29T01:44:34;99632.65;;;26.03;48.92
62592;BME280;48659;41.622;2.276;2022-07-29T01:47:10;99629.57;;;26.50;47.92
62592;BME280;48659;41.622;2.276;2022-07-29T01:49:43;99629.50;;;25.99;48.00
62592;BME280;48659;41.622;2.276;2022-07-29T01:52:19;99627.89;;;26.14;48.16
62592;BME280;48659;41.622;2.276;2022-07-29T01:54:52;99625.61;;;24.61;51.80
62592;BME280;48659;41.622;2.276;2022-07-29T01:57:25;99624.95;;;25.24;51.31
62592;BME280;48659;41.622;2.276;2022-07-29T01:59:53;99620.39;;;23.69;54.13
62592;BME280;48659;41.622;2.276;2022-07-29T02:02:23;99620.60;;;23.00;56.59
62592;BME280;48659;41.622;2.276;2022-07-29T02:04:52;99616.68;;;23.55;54.54
62592;BME280;48659;41.622;2.276;2022-07-29T02:07:21;99612.25;;;23.38;56.13
62592;BME280;48659;41.622;2.276;2022-07-29T02:09:51;99606.88;;;22.46;57.25
62592;BME280;48659;41.622;2.276;2022-07-29T02:12:20;99610.57;;;21.79;60.23
62592;BME280;48659;41.622;2.276;2022-07-29T02:14:51;99602.52;;;21.24;59.57
62592;BME280;48659;41.622;2.276;2022-07-29T02:17:25;99599.00;;;22.81;57.63
62592;BME280;48659;41.622;2.276;2022-07-29T02:19:57;99594.27;;;24.68;53.17
62592;BME280;48659;41.622;2.276;2022-07-29T02:22:28;99595.84;;;25.33;50.77
62592;BME280;48659;41.622;2.276;2022-07-29T02:24:57;99595.19;;;23.76;53.57
62592;BME280;48659;41.622;2.276;2022-07-29T02:27:27;99594.24;;;24.28;52.69
62592;BME280;48659;41.622;2.276;2022-07-29T02:29:58;99595.37;;;24.77;51.08
62592;BME280;48659;41.622;2.276;2022-07-29T02:32:28;99595.33;;;25.00;51.05
62592;BME280;48659;41.622;2.276;2022-07-29T02:34:57;99596.14;;;24.05;52.82
62592;BME280;48659;41.622;2.276;2022-07-29T02:37:27;99598.32;;;24.70;51.79
62592;BME280;48659;41.622;2.276;2022-07-29T02:39:55;99599.33;;;25.23;50.14
62592;BME280;48659;41.622;2.276;2022-07-29T02:42:27;99603.19;;;25.62;49.76
62592;BME280;48659;41.622;2.276;2022-07-29T02:44:54;99601.64;;;23.78;52.47
62592;BME280;48659;41.622;2.276;2022-07-29T02:47:24;99605.49;;;23.13;54.50
62592;BME280;48659;41.622;2.276;2022-07-29T02:49:59;99611.07;;;21.29;60.02
62592;BME280;48659;41.622;2.276;2022-07-29T02:52:33;99610.11;;;20.60;63.82
62592;BME280;48659;41.622;2.276;2022-07-29T02:55:13;99606.43;;;21.18;62.76
62592;BME280;48659;41.622;2.276;2022-07-29T02:57:45;99599.49;;;21.81;59.92
62592;BME280;48659;41.622;2.276;2022-07-29T03:00:15;99596.46;;;21.94;58.81
62592;BME280;48659;41.622;2.276;2022-07-29T03:02:45;99594.76;;;23.34;53.91
62592;BME280;48659;41.622;2.276;2022-07-29T03:05:17;99600.99;;;22.22;57.39
62592;BME280;48659;41.622;2.276;2022-07-29T03:07:49;99606.78;;;19.75;62.08
62592;BME280;48659;41.622;2.276;2022-07-29T03:10:19;99608.67;;;20.96;62.71
62592;BME280;48659;41.622;2.276;2022-07-29T03:12:47;99610.89;;;20.76;63.66
62592;BME280;48659;41.622;2.276;2022-07-29T03:15:15;99613.46;;;21.43;62.49
62592;BME280;48659;41.622;2.276;2022-07-29T03:17:43;99613.21;;;21.78;60.03
62592;BME280;48659;41.622;2.276;2022-07-29T03:20:11;99611.42;;;22.18;58.05
62592;BME280;48659;41.622;2.276;2022-07-29T03:22:40;99617.07;;;22.63;55.25
62592;BME280;48659;41.622;2.276;2022-07-29T03:25:09;99620.58;;;22.61;54.85
62592;BME280;48659;41.622;2.276;2022-07-29T03:27:37;99616.39;;;23.61;51.64
62592;BME280;48659;41.622;2.276;2022-07-29T03:30:05;99619.61;;;24.04;50.12
62592;BME280;48659;41.622;2.276;2022-07-29T03:32:38;99624.98;;;24.89;48.53
62592;BME280;48659;41.622;2.276;2022-07-29T03:35:07;99625.15;;;25.70;48.31
62592;BME280;48659;41.622;2.276;2022-07-29T03:37:35;99626.99;;;24.09;51.04
62592;BME280;48659;41.622;2.276;2022-07-29T03:40:07;99627.73;;;25.10;49.82
62592;BME280;48659;41.622;2.276;2022-07-29T03:42:40;99630.08;;;24.48;50.55
62592;BME280;48659;41.622;2.276;2022-07-29T03:45:12;99629.38;;;24.16;51.48
62592;BME280;48659;41.622;2.276;2022-07-29T03:47:45;99627.53;;;24.22;50.05
62592;BME280;48659;41.622;2.276;2022-07-29T03:50:15;99625.20;;;23.41;52.38
62592;BME280;48659;41.622;2.276;2022-07-29T03:52:43;99622.48;;;23.35;53.21
62592;BME280;48659;41.622;2.276;2022-07-29T03:55:11;99621.07;;;22.60;56.08
62592;BME280;48659;41.622;2.276;2022-07-29T03:57:40;99612.37;;;22.44;55.16
62592;BME280;48659;41.622;2.276;2022-07-29T04:00:09;99607.68;;;21.35;57.29
62592;BME280;48659;41.622;2.276;2022-07-29T04:02:38;99602.73;;;21.64;57.20
62592;BME280;48659;41.622;2.276;2022-07-29T04:05:12;99600.54;;;22.08;57.58
62592;BME280;48659;41.622;2.276;2022-07-29T04:07:40;99606.01;;;19.97;62.23
62592;BME280;48659;41.622;2.276;2022-07-29T04:10:08;99602.70;;;19.98;65.20
62592;BME280;48659;41.622;2.276;2022-07-29T04:12:35;99597.38;;;22.10;59.96
62592;BME280;48659;41.622;2.276;2022-07-29T04:15:03;99591.29;;;23.52;55.48
62592;BME280;48659;41.622;2.276;2022-07-29T04:17:30;99592.92;;;23.62;54.95
62592;BME280;48659;41.622;2.276;2022-07-29T04:19:58;99591.72;;;21.52;58.13
62592;BME280;48659;41.622;2.276;2022-07-29T04:22:26;99600.53;;;21.22;60.79
62592;BME280;48659;41.622;2.276;2022-07-29T04:24:53;99598.55;;;21.65;58.60
62592;BME280;48659;41.622;2.276;2022-07-29T04:27:21;99608.60;;;20.80;61.83
62592;BME280;48659;41.622;2.276;2022-07-29T04:29:49;99608.47;;;20.39;60.15
62592;BME280;48659;41.622;2.276;2022-07-29T04:32:16;99606.29;;;20.60;60.21
62592;BME280;48659;41.622;2.276;2022-07-29T04:34:44;99599.67;;;22.60;55.22
62592;BME280;48659;41.622;2.276;2022-07-29T04:37:11;99599.40;;;23.43;54.88
62592;BME280;48659;41.622;2.276;2022-07-29T04:39:39;99606.23;;;22.50;57.02
62592;BME280;48659;41.622;2.276;2022-07-29T04:42:06;99611.23;;;22.65;56.23
62592;BME280;48659;41.622;2.276;2022-07-29T04:44:34;99615.53;;;23.33;56.00
62592;BME280;48659;41.622;2.276;2022-07-29T04:47:02;99620.35;;;23.38;55.76
62592;BME280;48659;41.622;2.276;2022-07-29T04:49:30;99624.15;;;22.77;55.51
62592;BME280;48659;41.622;2.276;2022-07-29T04:51:57;99623.16;;;23.82;53.53
62592;BME280;48659;41.622;2.276;2022-07-29T04:54:25;99630.41;;;22.71;55.63
62592;BME280;48659;41.622;2.276;2022-07-29T04:56:53;99640.33;;;20.15;60.71
62592;BME280;48659;41.622;2.276;2022-07-29T04:59:20;99638.84;;;21.54;58.97
62592;BME280;48659;41.622;2.276;2022-07-29T05:01:48;99636.20;;;21.92;58.71
62592;BME280;48659;41.622;2.276;2022-07-29T05:04:15;99635.58;;;22.16;58.93
62592;BME280;48659;41.622;2.276;2022-07-29T05:06:43;99634.49;;;21.98;57.67
62592;BME280;48659;41.622;2.276;2022-07-29T05:09:10;99639.32;;;22.53;55.76
62592;BME280;48659;41.622;2.276;2022-07-29T05:11:38;99646.87;;;22.22;56.33
62592;BME280;48659;41.622;2.276;2022-07-29T05:14:05;99665.79;;;20.91;59.86
62592;BME280;48659;41.622;2.276;2022-07-29T05:16:44;99665.94;;;22.22;57.72
62592;BME280;48659;41.622;2.276;2022-07-29T05:19:12;99673.60;;;21.07;60.66
62592;BME280;48659;41.622;2.276;2022-07-29T05:21:39;99673.72;;;19.78;65.68
62592;BME280;48659;41.622;2.276;2022-07-29T05:24:06;99676.74;;;20.19;65.18
62592;BME280;48659;41.622;2.276;2022-07-29T05:26:39;99681.75;;;22.11;59.54
62592;BME280;48659;41.622;2.276;2022-07-29T05:29:07;99679.77;;;23.50;55.28
62592;BME280;48659;41.622;2.276;2022-07-29T05:31:35;99675.17;;;23.37;53.16
62592;BME280;48659;41.622;2.276;2022-07-29T05:34:03;99677.04;;;21.24;57.80
62592;BME280;48659;41.622;2.276;2022-07-29T05:36:30;99669.76;;;23.70;53.33
62592;BME280;48659;41.622;2.276;2022-07-29T05:38:58;99672.73;;;22.80;55.00
62592;BME280;48659;41.622;2.276;2022-07-29T05:41:25;99672.63;;;24.92;50.22
62592;BME280;48659;41.622;2.276;2022-07-29T05:43:53;99680.67;;;24.92;50.46
62592;BME280;48659;41.622;2.276;2022-07-29T05:46:20;99683.97;;;24.23;52.00
62592;BME280;48659;41.622;2.276;2022-07-29T05:48:47;99682.33;;;25.00;49.05
62592;BME280;48659;41.622;2.276;2022-07-29T05:51:15;99685.27;;;25.35;49.25
62592;BME280;48659;41.622;2.276;2022-07-29T05:53:42;99686.33;;;24.66;49.75
62592;BME280;48659;41.622;2.276;2022-07-29T05:56:10;99690.13;;;25.47;48.93
62592;BME280;48659;41.622;2.276;2022-07-29T05:58:37;99696.69;;;22.52;54.57
62592;BME280;48659;41.622;2.276;2022-07-29T06:01:05;99697.56;;;21.93;54.62
62592;BME280;48659;41.622;2.276;2022-07-29T06:03:32;99696.19;;;23.99;52.52
62592;BME280;48659;41.622;2.276;2022-07-29T06:06:00;99695.71;;;24.98;50.28
62592;BME280;48659;41.622;2.276;2022-07-29T06:08:27;99694.48;;;25.39;48.99
62592;BME280;48659;41.622;2.276;2022-07-29T06:10:55;99704.59;;;23.57;51.51
62592;BME280;48659;41.622;2.276;2022-07-29T06:13:23;99703.90;;;22.55;55.29
62592;BME280;48659;41.622;2.276;2022-07-29T06:15:50;99701.39;;;24.19;50.82
62592;BME280;48659;41.622;2.276;2022-07-29T06:18:18;99703.03;;;22.98;51.94
62592;BME280;48659;41.622;2.276;2022-07-29T06:20:46;99697.36;;;23.93;49.89
62592;BME280;48659;41.622;2.276;2022-07-29T06:23:13;99701.34;;;25.98;46.74
62592;BME280;48659;41.622;2.276;2022-07-29T06:25:41;99693.94;;;27.26;43.96
62592;BME280;48659;41.622;2.276;2022-07-29T06:28:09;99699.28;;;26.97;43.75
62592;BME280;48659;41.622;2.276;2022-07-29T06:30:37;99700.27;;;27.39;43.05
62592;BME280;48659;41.622;2.276;2022-07-29T06:33:05;99704.58;;;28.70;41.11
62592;BME280;48659;41.622;2.276;2022-07-29T06:35:34;99699.35;;;29.17;39.93
62592;BME280;48659;41.622;2.276;2022-07-29T06:38:02;99701.07;;;28.54;39.30
62592;BME280;48659;41.622;2.276;2022-07-29T06:40:30;99704.95;;;30.02;38.55
62592;BME280;48659;41.622;2.276;2022-07-29T06:42:57;99705.74;;;28.82;38.82
62592;BME280;48659;41.622;2.276;2022-07-29T06:45:25;99707.46;;;29.84;38.14
62592;BME280;48659;41.622;2.276;2022-07-29T06:47:52;99710.16;;;29.44;38.94
62592;BME280;48659;41.622;2.276;2022-07-29T06:50:20;99710.03;;;30.00;38.89
62592;BME280;48659;41.622;2.276;2022-07-29T06:52:47;99713.61;;;30.12;37.93
62592;BME280;48659;41.622;2.276;2022-07-29T06:55:14;99714.99;;;30.55;38.24
62592;BME280;48659;41.622;2.276;2022-07-29T06:57:43;99719.15;;;30.29;37.16
62592;BME280;48659;41.622;2.276;2022-07-29T07:00:11;99718.16;;;30.68;37.09
62592;BME280;48659;41.622;2.276;2022-07-29T07:02:39;99717.69;;;30.86;36.27
62592;BME280;48659;41.622;2.276;2022-07-29T07:05:07;99719.04;;;30.71;37.65
62592;BME280;48659;41.622;2.276;2022-07-29T07:07:35;99721.47;;;30.44;38.37
62592;BME280;48659;41.622;2.276;2022-07-29T07:10:03;99718.67;;;30.22;39.17
62592;BME280;48659;41.622;2.276;2022-07-29T07:12:31;99718.48;;;31.22;36.97
62592;BME280;48659;41.622;2.276;2022-07-29T07:14:58;99715.28;;;30.84;36.65
62592;BME280;48659;41.622;2.276;2022-07-29T07:17:25;99713.12;;;31.81;35.87
62592;BME280;48659;41.622;2.276;2022-07-29T07:19:53;99709.48;;;31.51;35.78
62592;BME280;48659;41.622;2.276;2022-07-29T07:22:20;99714.40;;;31.76;35.40
62592;BME280;48659;41.622;2.276;2022-07-29T07:24:48;99719.41;;;31.23;35.66
62592;BME280;48659;41.622;2.276;2022-07-29T07:27:15;99717.19;;;31.32;35.67
62592;BME280;48659;41.622;2.276;2022-07-29T07:29:42;99722.04;;;30.46;35.57
62592;BME280;48659;41.622;2.276;2022-07-29T07:32:10;99715.33;;;31.64;35.19
62592;BME280;48659;41.622;2.276;2022-07-29T07:34:36;99718.36;;;31.78;35.41
62592;BME280;48659;41.622;2.276;2022-07-29T07:37:04;99712.03;;;32.38;34.85
62592;BME280;48659;41.622;2.276;2022-07-29T07:39:32;99720.74;;;30.69;36.48
62592;BME280;48659;41.622;2.276;2022-07-29T07:42:00;99720.68;;;28.28;40.17
62592;BME280;48659;41.622;2.276;2022-07-29T07:44:27;99718.44;;;30.93;35.92
62592;BME280;48659;41.622;2.276;2022-07-29T07:46:54;99720.46;;;31.06;35.42
62592;BME280;48659;41.622;2.276;2022-07-29T07:49:22;99720.20;;;30.60;36.60
62592;BME280;48659;41.622;2.276;2022-07-29T07:51:50;99715.84;;;30.69;35.85
62592;BME280;48659;41.622;2.276;2022-07-29T07:54:17;99713.34;;;31.56;35.73
62592;BME280;48659;41.622;2.276;2022-07-29T07:56:44;99716.65;;;29.87;36.97
62592;BME280;48659;41.622;2.276;2022-07-29T07:59:12;99714.68;;;31.20;35.61
62592;BME280;48659;41.622;2.276;2022-07-29T08:01:44;99711.85;;;30.52;35.92
62592;BME280;48659;41.622;2.276;2022-07-29T08:04:11;99711.67;;;30.05;36.46
62592;BME280;48659;41.622;2.276;2022-07-29T08:06:38;99712.62;;;30.77;35.28
62592;BME280;48659;41.622;2.276;2022-07-29T08:09:06;99710.03;;;30.53;35.62
62592;BME280;48659;41.622;2.276;2022-07-29T08:11:34;99709.82;;;30.42;35.49
62592;BME280;48659;41.622;2.276;2022-07-29T08:14:01;99710.01;;;29.41;37.28
62592;BME280;48659;41.622;2.276;2022-07-29T08:16:28;99712.12;;;29.59;37.25
62592;BME280;48659;41.622;2.276;2022-07-29T08:18:56;99714.83;;;29.13;37.82
62592;BME280;48659;41.622;2.276;2022-07-29T08:21:24;99719.72;;;30.69;36.23
62592;BME280;48659;41.622;2.276;2022-07-29T08:23:51;99723.17;;;30.56;35.04
62592;BME280;48659;41.622;2.276;2022-07-29T08:26:19;99719.51;;;31.96;33.56
62592;BME280;48659;41.622;2.276;2022-07-29T08:28:47;99720.59;;;31.77;33.42
62592;BME280;48659;41.622;2.276;2022-07-29T08:31:14;99729.14;;;31.59;33.51
62592;BME280;48659;41.622;2.276;2022-07-29T08:33:42;99733.67;;;30.07;35.04
62592;BME280;48659;41.622;2.276;2022-07-29T08:36:09;99732.04;;;31.09;34.05
62592;BME280;48659;41.622;2.276;2022-07-29T08:38:38;99727.52;;;31.74;33.15
62592;BME280;48659;41.622;2.276;2022-07-29T08:41:05;99727.58;;;32.02;33.26
62592;BME280;48659;41.622;2.276;2022-07-29T08:43:33;99727.10;;;32.38;32.74
62592;BME280;48659;41.622;2.276;2022-07-29T08:46:00;99722.75;;;31.85;33.24
62592;BME280;48659;41.622;2.276;2022-07-29T08:48:28;99724.55;;;31.37;33.86
62592;BME280;48659;41.622;2.276;2022-07-29T08:50:56;99724.62;;;32.45;32.65
62592;BME280;48659;41.622;2.276;2022-07-29T08:53:26;99723.20;;;32.49;32.30
62592;BME280;48659;41.622;2.276;2022-07-29T08:55:55;99724.58;;;31.69;33.11
62592;BME280;48659;41.622;2.276;2022-07-29T08:58:25;99732.55;;;30.20;35.83
62592;BME280;48659;41.622;2.276;2022-07-29T09:00:55;99727.70;;;32.08;33.66
62592;BME280;48659;41.622;2.276;2022-07-29T09:03:24;99734.29;;;31.34;34.29
62592;BME280;48659;41.622;2.276;2022-07-29T09:05:53;99737.55;;;29.14;37.94
62592;BME280;48659;41.622;2.276;2022-07-29T09:08:21;99737.24;;;31.24;34.85
62592;BME280;48659;41.622;2.276;2022-07-29T09:10:50;99734.54;;;30.59;34.97
62592;BME280;48659;41.622;2.276;2022-07-29T09:13:17;99731.44;;;31.53;34.03
62592;BME280;48659;41.622;2.276;2022-07-29T09:15:45;99734.74;;;31.06;34.40
62592;BME280;48659;41.622;2.276;2022-07-29T09:18:12;99741.53;;;30.97;34.48
62592;BME280;48659;41.622;2.276;2022-07-29T09:20:59;99739.46;;;30.48;34.70
62592;BME280;48659;41.622;2.276;2022-07-29T09:23:27;99731.39;;;32.14;32.29
62592;BME280;48659;41.622;2.276;2022-07-29T09:25:55;99731.52;;;32.26;32.36
62592;BME280;48659;41.622;2.276;2022-07-29T09:28:22;99729.59;;;32.19;32.28
62592;BME280;48659;41.622;2.276;2022-07-29T09:30:51;99734.08;;;30.33;34.02
62592;BME280;48659;41.622;2.276;2022-07-29T09:33:21;99735.79;;;29.73;35.51
62592;BME280;48659;41.622;2.276;2022-07-29T09:35:59;99735.05;;;30.60;33.89
62592;BME280;48659;41.622;2.276;2022-07-29T09:38:26;99732.91;;;31.25;33.10
62592;BME280;48659;41.622;2.276;2022-07-29T09:40:57;99736.66;;;30.24;34.79
62592;BME280;48659;41.622;2.276;2022-07-29T09:43:24;99736.76;;;29.90;35.34
62592;BME280;48659;41.622;2.276;2022-07-29T09:45:53;99733.19;;;30.29;33.89
62592;BME280;48659;41.622;2.276;2022-07-29T09:48:22;99724.19;;;31.95;32.65
62592;BME280;48659;41.622;2.276;2022-07-29T09:50:51;99722.04;;;31.95;31.69
62592;BME280;48659;41.622;2.276;2022-07-29T09:53:31;99722.73;;;32.97;30.73
62592;BME280;48659;41.622;2.276;2022-07-29T09:55:58;99724.77;;;32.83;31.09
62592;BME280;48659;41.622;2.276;2022-07-29T09:58:27;99720.84;;;31.33;32.80
62592;BME280;48659;41.622;2.276;2022-07-29T10:00:55;99720.05;;;32.01;31.57
62592;BME280;48659;41.622;2.276;2022-07-29T10:03:23;99719.51;;;32.96;30.76
62592;BME280;48659;41.622;2.276;2022-07-29T10:06:06;99718.20;;;31.55;32.09
62592;BME280;48659;41.622;2.276;2022-07-29T10:08:42;99719.85;;;31.45;32.12
62592;BME280;48659;41.622;2.276;2022-07-29T10:11:11;99720.86;;;31.24;32.47
62592;BME280;48659;41.622;2.276;2022-07-29T10:13:41;99721.75;;;31.03;32.74
62592;BME280;48659;41.622;2.276;2022-07-29T10:16:08;99726.64;;;30.83;33.67
62592;BME280;48659;41.622;2.276;2022-07-29T10:18:39;99721.58;;;32.37;31.94
62592;BME280;48659;41.622;2.276;2022-07-29T10:21:08;99721.81;;;32.96;30.33
62592;BME280;48659;41.622;2.276;2022-07-29T10:23:35;99721.66;;;32.32;30.93
62592;BME280;48659;41.622;2.276;2022-07-29T10:26:03;99721.55;;;33.13;30.04
62592;BME280;48659;41.622;2.276;2022-07-29T10:28:31;99723.94;;;32.40;30.68
62592;BME280;48659;41.622;2.276;2022-07-29T10:31:02;99726.54;;;33.36;30.76
62592;BME280;48659;41.622;2.276;2022-07-29T10:33:43;99730.38;;;29.93;36.67
62592;BME280;48659;41.622;2.276;2022-07-29T10:36:26;99735.73;;;29.96;36.11
62592;BME280;48659;41.622;2.276;2022-07-29T10:39:05;99739.07;;;30.94;34.33
62592;BME280;48659;41.622;2.276;2022-07-29T10:41:52;99734.80;;;32.22;32.20
62592;BME280;48659;41.622;2.276;2022-07-29T10:44:24;99735.21;;;31.71;32.88
62592;BME280;48659;41.622;2.276;2022-07-29T10:46:52;99736.55;;;32.78;31.71
62592;BME280;48659;41.622;2.276;2022-07-29T10:49:21;99736.83;;;32.24;32.59
62592;BME280;48659;41.622;2.276;2022-07-29T10:51:54;99741.88;;;31.15;34.59
62592;BME280;48659;41.622;2.276;2022-07-29T10:54:37;99741.62;;;28.97;43.71
62592;BME280;48659;41.622;2.276;2022-07-29T10:57:15;99745.92;;;28.94;45.85
62592;BME280;48659;41.622;2.276;2022-07-29T10:59:44;99749.92;;;28.36;47.51
62592;BME280;48659;41.622;2.276;2022-07-29T11:02:45;99755.95;;;27.53;51.52
62592;BME280;48659;41.622;2.276;2022-07-29T11:05:13;99758.16;;;27.78;52.04
62592;BME280;48659;41.622;2.276;2022-07-29T11:08:17;99766.61;;;26.50;54.11
62592;BME280;48659;41.622;2.276;2022-07-29T11:10:44;99772.25;;;26.74;54.17
62592;BME280;48659;41.622;2.276;2022-07-29T11:13:12;99772.84;;;27.36;54.38
62592;BME280;48659;41.622;2.276;2022-07-29T11:15:57;99780.28;;;26.46;54.83
62592;BME280;48659;41.622;2.276;2022-07-29T11:18:24;99778.57;;;26.58;56.27
62592;BME280;48659;41.622;2.276;2022-07-29T11:20:52;99778.91;;;26.62;57.15
62592;BME280;48659;41.622;2.276;2022-07-29T11:23:23;99782.72;;;26.51;56.81
62592;BME280;48659;41.622;2.276;2022-07-29T11:26:23;99775.49;;;26.25;57.09
62592;BME280;48659;41.622;2.276;2022-07-29T11:28:54;99779.61;;;26.69;54.60
62592;BME280;48659;41.622;2.276;2022-07-29T11:32:08;99776.62;;;27.09;52.85
62592;BME280;48659;41.622;2.276;2022-07-29T11:34:37;99784.83;;;26.47;52.86
62592;BME280;48659;41.622;2.276;2022-07-29T11:37:21;99777.84;;;26.68;52.57
62592;BME280;48659;41.622;2.276;2022-07-29T11:40:21;99772.09;;;26.60;53.51
62592;BME280;48659;41.622;2.276;2022-07-29T11:42:50;99771.23;;;26.35;53.14
62592;BME280;48659;41.622;2.276;2022-07-29T11:45:23;99773.92;;;26.68;53.36
62592;BME280;48659;41.622;2.276;2022-07-29T11:47:53;99770.69;;;26.46;52.99
62592;BME280;48659;41.622;2.276;2022-07-29T11:50:33;99771.00;;;27.12;52.53
62592;BME280;48659;41.622;2.276;2022-07-29T11:53:02;99770.27;;;26.85;54.22
62592;BME280;48659;41.622;2.276;2022-07-29T11:55:30;99778.76;;;26.68;53.47
62592;BME280;48659;41.622;2.276;2022-07-29T11:57:59;99789.95;;;26.63;51.76
62592;BME280;48659;41.622;2.276;2022-07-29T12:00:30;99787.10;;;26.61;50.95
62592;BME280;48659;41.622;2.276;2022-07-29T12:03:01;99786.40;;;26.77;49.17
62592;BME280;48659;41.622;2.276;2022-07-29T12:05:40;99787.51;;;26.94;48.17
62592;BME280;48659;41.622;2.276;2022-07-29T12:08:13;99796.13;;;27.16;47.39
62592;BME280;48659;41.622;2.276;2022-07-29T12:10:42;99783.64;;;25.73;49.86
62592;BME280;48659;41.622;2.276;2022-07-29T12:13:10;99796.39;;;27.04;49.62
62592;BME280;48659;41.622;2.276;2022-07-29T12:15:39;99808.54;;;26.26;48.96
62592;BME280;48659;41.622;2.276;2022-07-29T12:18:16;99814.48;;;26.83;48.52
62592;BME280;48659;41.622;2.276;2022-07-29T12:20:45;99811.78;;;26.91;46.62
62592;BME280;48659;41.622;2.276;2022-07-29T12:23:13;99808.12;;;27.18;46.87
62592;BME280;48659;41.622;2.276;2022-07-29T12:25:42;99804.72;;;26.51;47.04
62592;BME280;48659;41.622;2.276;2022-07-29T12:28:14;99806.06;;;26.82;47.13
62592;BME280;48659;41.622;2.276;2022-07-29T12:30:44;99810.91;;;26.44;46.63
62592;BME280;48659;41.622;2.276;2022-07-29T12:33:17;99808.66;;;26.90;46.71
62592;BME280;48659;41.622;2.276;2022-07-29T12:35:47;99806.51;;;26.94;46.35
62592;BME280;48659;41.622;2.276;2022-07-29T12:38:14;99811.58;;;26.79;45.98
62592;BME280;48659;41.622;2.276;2022-07-29T12:40:43;99801.25;;;26.93;45.11
62592;BME280;48659;41.622;2.276;2022-07-29T12:43:13;99810.31;;;27.15;45.63
62592;BME280;48659;41.622;2.276;2022-07-29T12:45:45;99815.51;;;27.53;43.96
62592;BME280;48659;41.622;2.276;2022-07-29T12:48:14;99812.33;;;26.86;44.68
62592;BME280;48659;41.622;2.276;2022-07-29T12:50:58;99808.87;;;26.51;44.89
62592;BME280;48659;41.622;2.276;2022-07-29T12:53:26;99809.81;;;27.22;45.28
62592;BME280;48659;41.622;2.276;2022-07-29T12:55:55;99810.29;;;27.62;44.40
62592;BME280;48659;41.622;2.276;2022-07-29T12:58:32;99799.54;;;27.55;45.69
62592;BME280;48659;41.622;2.276;2022-07-29T13:01:02;99786.37;;;27.88;43.67
62592;BME280;48659;41.622;2.276;2022-07-29T13:03:42;99774.33;;;27.96;42.95
62592;BME280;48659;41.622;2.276;2022-07-29T13:06:29;99773.93;;;27.10;43.10
62592;BME280;48659;41.622;2.276;2022-07-29T13:09:02;99774.33;;;27.40;42.82
62592;BME280;48659;41.622;2.276;2022-07-29T13:11:32;99771.11;;;27.96;41.35
62592;BME280;48659;41.622;2.276;2022-07-29T13:13:59;99763.13;;;28.16;41.03
62592;BME280;48659;41.622;2.276;2022-07-29T13:16:27;99778.70;;;28.10;41.13